Prairieville, LA (70769)

10:40 AM CST on January 17, 2017 (GMT -0600)
KLAPRIAI2 | | Change Station
Active Advisory: Marine Fog Advisory

Elev 60 ft 30.27 °N, 90.98 °W | Updated 9 minutes ago

Overcast
Overcast
71.7 °F
Feels Like 71 °F
N
1.0
Wind Variable Wind from SSW
Gusts 3.0 mph

Today
High -- | Low -- °F
--% Chance of Precip.
Yesterday
High -- | Low -- °F
Precip. -- in
Pressure 30.15 in
Visibility 10.0 miles
Clouds Overcast 1400 ft
Heat Index 71 °F
Dew Point 66 °F
Humidity 82%
Rainfall 0.00 in
Snow Depth Not available.
7:00 AM 5:27 PM
Waning Gibbous, 71% visible
METAR KL38 171635Z AUTO 19005KT 10SM OVC014 23/20 A3015 RMK AO2 T02250200
Pressure 30.15 in
Visibility 10.0 miles
Clouds Overcast 1400 ft
Heat Index 71 °F
Dew Point 66 °F
Humidity 82%
Rainfall 0.00 in
Snow Depth Not available.
7:00 AM 5:27 PM
Waning Gibbous, 71% visible
METAR KL38 171635Z AUTO 19005KT 10SM OVC014 23/20 A3015 RMK AO2 T02250200

Get Your Daily Forecast Email!

Thanks for signing up!

Be on the lookout for a verification email in your inbox.

You'll start receiving the daily forecast at 8 AM.

×

10-Day Weather Forecast

Almanac

Astronomy

Jan. 17, 2017 Rise Set
Actual Time
Civil Twilight
Nautical Twilight
Astronomical Twilight
Moon
Length of Visible Light
Length of Day
Tomorrow will be .
, % of the Moon is Illuminated

Today's Extremes

State Highs State Lows

Community

WunderPhotos

Upload Photos

1,962,540 photos uploaded!

WunderBlog® & News

Nearby

Air Quality

  Air Quality AQ Index Pollutant
Not available.

Snow Depth

Station Depth Elevation

Earthquake Activity

City Distance Mag. Time & Date
Minimum magnitude displayed is 2.5.

Coastal Water Temperatures

Place Temperature

Stations

Nearby Weather Stations

Station Location Temp. Windchill Dew Point Humidity Wind Precip. Elev Updated Type
                   

Watches & Warnings

Marine Fog Advisory
Issued: 8:57 AM CST Jan. 17, 2017 – National Weather Service

... Dense fog advisory now in effect until noon CST today...

* visibility... one nautical mile or less.

Precautionary/preparedness actions...

A dense fog advisory means visibilities will frequently be
reduced to less than one mile. Inexperienced mariners...
especially those operating smaller vessels should avoid
navigating in these conditions.